createdAt,value
2022-09-05T00:02:04.117Z,44.46
2022-09-05T00:04:58.278Z,44.44
2022-09-05T00:07:58.378Z,44.15
2022-09-05T00:10:37.261Z,44.50
2022-09-05T00:13:09.878Z,44.62
2022-09-05T00:15:48.480Z,44.43
2022-09-05T00:23:29.025Z,44.30
2022-09-05T00:24:30.243Z,44.33
2022-09-05T00:24:54.767Z,44.75
2022-09-05T00:27:51.096Z,45.17
2022-09-05T00:31:08.795Z,44.82
2022-09-05T00:33:17.898Z,44.76
2022-09-05T00:35:53.460Z,45.01
2022-09-05T00:38:32.135Z,44.91
2022-09-05T00:41:13.373Z,45.09
2022-09-05T00:43:48.061Z,45.25
2022-09-05T00:46:37.079Z,45.62
2022-09-05T00:49:40.229Z,45.39
2022-09-05T00:52:30.764Z,45.18
2022-09-05T00:55:05.997Z,45.51
2022-09-05T00:57:50.545Z,45.87
2022-09-05T01:00:35.808Z,45.91
2022-09-05T01:03:29.858Z,45.72
2022-09-05T01:10:03.391Z,45.85
2022-09-05T01:12:57.854Z,45.63
2022-09-05T01:15:33.229Z,45.41
2022-09-05T01:18:07.993Z,45.89
2022-09-05T01:20:40.254Z,45.53
2022-09-05T01:23:24.796Z,45.98
2022-09-05T01:26:06.723Z,46.23
2022-09-05T01:29:16.254Z,45.93
2022-09-05T01:31:34.395Z,46.35
2022-09-05T01:34:31.437Z,46.14
2022-09-05T01:37:03.291Z,46.58
2022-09-05T01:40:14.903Z,46.89
2022-09-05T01:43:25.673Z,46.56
2022-09-05T01:45:59.290Z,46.72
2022-09-05T01:48:30.247Z,46.60
2022-09-05T01:51:29.479Z,47.31
2022-09-05T01:54:25.579Z,46.89
2022-09-05T01:57:21.142Z,46.77
2022-09-05T02:00:08.980Z,46.74
2022-09-05T02:02:50.428Z,47.04
2022-09-05T02:05:53.702Z,46.75
2022-09-05T02:08:57.378Z,47.15
2022-09-05T02:11:52.633Z,47.06
2022-09-05T02:14:27.064Z,47.08
2022-09-05T02:17:27.243Z,47.07
2022-09-05T02:20:30.095Z,47.32
2022-09-05T02:22:56.498Z,47.42
2022-09-05T02:26:02.024Z,47.69
2022-09-05T02:28:51.245Z,47.66
2022-09-05T02:31:34.095Z,47.47
2022-09-05T02:34:11.927Z,47.86
2022-09-05T02:37:10.853Z,48.13
2022-09-05T02:45:00.456Z,48.04
2022-09-05T02:45:09.926Z,48.35
2022-09-05T02:45:44.671Z,47.78
2022-09-05T02:48:27.722Z,48.18
2022-09-05T02:57:30.047Z,47.91
2022-09-05T02:57:42.483Z,48.49
2022-09-05T02:58:06.202Z,48.10
2022-09-05T03:00:21.217Z,48.47
2022-09-05T03:03:26.108Z,48.40
2022-09-05T03:06:06.033Z,48.59
2022-09-05T03:09:09.839Z,48.98
2022-09-05T03:12:00.002Z,49.16
2022-09-05T03:15:18.704Z,48.92
2022-09-05T03:18:31.704Z,49.18
2022-09-05T03:21:20.095Z,49.03
2022-09-05T03:23:55.484Z,48.99
2022-09-05T03:26:43.519Z,49.05
2022-09-05T03:29:47.622Z,49.17
2022-09-05T03:32:28.413Z,48.93
2022-09-05T03:35:33.152Z,49.39
2022-09-05T03:38:22.234Z,49.17
2022-09-05T03:41:30.250Z,49.00
2022-09-05T03:44:48.989Z,49.17
2022-09-05T03:47:47.422Z,49.16
2022-09-05T03:57:06.232Z,49.19
2022-09-05T03:57:16.380Z,49.47
2022-09-05T03:57:23.406Z,49.34
2022-09-05T03:59:53.642Z,49.49
2022-09-05T04:05:28.406Z,49.23
2022-09-05T04:08:16.627Z,49.86
2022-09-05T04:08:42.425Z,49.59
2022-09-05T04:11:17.284Z,50.01
2022-09-05T04:13:52.335Z,49.77
2022-09-05T04:16:18.847Z,49.53
2022-09-05T04:18:51.718Z,50.04
2022-09-05T04:21:29.240Z,50.01
2022-09-05T04:24:14.219Z,49.89
2022-09-05T04:26:46.701Z,49.78
2022-09-05T04:29:31.149Z,50.10
2022-09-05T04:32:23.852Z,49.90
2022-09-05T04:35:04.266Z,49.54
2022-09-05T04:37:55.073Z,49.99
2022-09-05T04:40:39.407Z,49.90
2022-09-05T04:43:24.957Z,49.78
2022-09-05T04:45:58.484Z,49.83
2022-09-05T04:48:34.146Z,49.75
2022-09-05T04:51:12.965Z,49.80
2022-09-05T04:54:16.900Z,49.36
2022-09-05T04:56:49.369Z,49.75
2022-09-05T05:01:42.070Z,49.80
2022-09-05T05:06:09.768Z,49.77
2022-09-05T05:06:16.109Z,50.09
2022-09-05T05:08:43.597Z,50.30
2022-09-05T05:17:40.367Z,49.86
2022-09-05T05:18:01.254Z,50.13
2022-09-05T05:18:36.728Z,50.28
2022-09-05T05:21:08.019Z,50.00
2022-09-05T05:23:56.432Z,50.04
2022-09-05T05:26:29.582Z,50.24
2022-09-05T05:29:01.040Z,49.94
2022-09-05T05:31:31.971Z,49.35
2022-09-05T05:34:06.136Z,49.53
2022-09-05T05:37:25.235Z,49.73
2022-09-05T05:40:04.108Z,49.76
2022-09-05T05:42:31.155Z,49.60
2022-09-05T05:44:59.132Z,49.57
2022-09-05T05:47:49.373Z,49.61
2022-09-05T05:50:33.545Z,49.79
2022-09-05T05:53:40.982Z,49.84
2022-09-05T05:56:32.183Z,49.57
2022-09-05T05:59:18.465Z,49.54
2022-09-05T06:02:15.065Z,50.10
2022-09-05T06:05:03.783Z,50.27
2022-09-05T06:10:39.075Z,50.04
2022-09-05T06:14:48.308Z,49.60
2022-09-05T06:15:06.397Z,48.76
2022-09-05T06:16:43.283Z,49.31
2022-09-05T06:19:18.826Z,48.97
2022-09-05T06:22:09.121Z,48.44
2022-09-05T06:25:16.266Z,48.45
2022-09-05T06:28:18.129Z,48.58
2022-09-05T06:31:21.179Z,48.04
2022-09-05T06:33:48.871Z,47.17
2022-09-05T06:36:52.427Z,46.77
2022-09-05T06:39:40.969Z,46.29
2022-09-05T06:42:50.515Z,45.72
2022-09-05T06:45:46.672Z,46.03
2022-09-05T06:48:45.695Z,45.56
2022-09-05T06:51:35.670Z,44.35
2022-09-05T06:54:07.788Z,44.75
2022-09-05T06:57:04.687Z,44.96
2022-09-05T07:00:19.575Z,45.00
2022-09-05T07:03:30.608Z,45.04
2022-09-05T07:06:49.439Z,45.10
2022-09-05T07:09:44.834Z,46.11
2022-09-05T07:12:23.758Z,46.11
2022-09-05T07:15:16.673Z,45.82
2022-09-05T07:18:10.431Z,44.77
2022-09-05T07:21:15.748Z,43.78
2022-09-05T07:24:09.159Z,44.78
2022-09-05T07:26:54.167Z,45.15
2022-09-05T07:29:53.442Z,44.31
2022-09-05T07:32:31.725Z,43.68
2022-09-05T07:35:02.462Z,43.09
2022-09-05T07:37:44.222Z,44.15
2022-09-05T07:40:25.735Z,43.85
2022-09-05T07:43:18.720Z,44.01
2022-09-05T07:45:58.153Z,42.72
2022-09-05T07:48:34.881Z,42.91
2022-09-05T07:56:19.190Z,42.34
2022-09-05T07:56:50.756Z,41.39
2022-09-05T07:59:50.828Z,40.25
2022-09-05T08:02:17.437Z,39.26
2022-09-05T08:04:44.639Z,38.12
2022-09-05T08:07:47.650Z,39.07
2022-09-05T08:10:15.670Z,40.15
2022-09-05T08:13:23.800Z,39.23
2022-09-05T08:16:09.701Z,39.45
2022-09-05T08:19:04.077Z,39.22
2022-09-05T08:21:42.461Z,39.12
2022-09-05T08:24:36.622Z,38.69
2022-09-05T08:27:24.746Z,38.11
2022-09-05T08:30:26.559Z,36.99
2022-09-05T08:33:11.034Z,35.95
2022-09-05T08:36:00.704Z,36.59
2022-09-05T08:38:37.420Z,36.63
2022-09-05T08:41:43.117Z,35.30
2022-09-05T08:46:40.816Z,35.92
2022-09-05T08:47:45.022Z,35.16
2022-09-05T08:50:53.997Z,35.14
2022-09-05T08:54:05.478Z,34.36
2022-09-05T08:56:44.178Z,34.24
2022-09-05T08:59:31.741Z,33.20
2022-09-05T09:02:46.519Z,34.86
2022-09-05T09:05:14.144Z,34.21
2022-09-05T09:08:15.803Z,36.74
2022-09-05T09:10:59.405Z,37.41
2022-09-05T09:13:54.742Z,38.05
2022-09-05T09:16:34.017Z,37.26
2022-09-05T09:19:16.862Z,35.43
2022-09-05T09:21:47.621Z,34.90
2022-09-05T09:24:39.334Z,34.02
2022-09-05T09:27:09.254Z,34.00
2022-09-05T09:29:39.922Z,32.81
2022-09-05T09:32:17.317Z,32.62
2022-09-05T09:35:06.324Z,33.23
2022-09-05T09:37:55.351Z,33.26
2022-09-05T09:41:00.616Z,32.34
2022-09-05T09:44:13.763Z,31.49
2022-09-05T09:46:46.250Z,32.57
2022-09-05T09:49:33.870Z,31.02
2022-09-05T09:52:20.824Z,30.37
2022-09-05T09:55:28.639Z,29.44
2022-09-05T09:58:09.585Z,29.91
2022-09-05T10:00:51.136Z,30.09
2022-09-05T10:10:35.429Z,29.75
2022-09-05T10:10:47.955Z,27.87
2022-09-05T10:11:04.023Z,29.42
2022-09-05T10:13:41.393Z,28.29
2022-09-05T10:16:27.302Z,27.38
2022-09-05T10:19:15.585Z,29.00
2022-09-05T10:25:12.152Z,30.35
2022-09-05T10:28:13.845Z,31.03
2022-09-05T10:32:52.029Z,31.04
2022-09-05T10:35:17.978Z,30.94
2022-09-05T10:36:23.418Z,30.10
2022-09-05T10:39:07.979Z,29.21
2022-09-05T10:42:02.668Z,29.91
2022-09-05T10:44:53.694Z,30.22
2022-09-05T10:47:35.759Z,30.59
2022-09-05T10:50:20.811Z,30.86
2022-09-05T10:52:50.000Z,30.44
2022-09-05T10:55:57.303Z,29.93
2022-09-05T11:01:33.379Z,31.00
2022-09-05T11:02:27.976Z,32.32
2022-09-05T11:04:56.189Z,32.40
2022-09-05T11:07:39.860Z,31.56
2022-09-05T11:10:09.167Z,31.00
2022-09-05T11:13:00.016Z,31.05
2022-09-05T11:16:03.681Z,32.26
2022-09-05T11:18:57.666Z,31.50
2022-09-05T11:21:43.041Z,31.37
2022-09-05T11:24:31.815Z,31.45
2022-09-05T11:27:24.425Z,31.26
2022-09-05T11:29:58.155Z,30.93
2022-09-05T11:36:27.595Z,29.78
2022-09-05T11:39:47.013Z,28.71
2022-09-05T11:40:26.594Z,28.05
2022-09-05T11:41:25.114Z,27.03
2022-09-05T11:44:25.054Z,26.78
2022-09-05T11:47:30.201Z,26.08
2022-09-05T11:50:27.603Z,25.98
2022-09-05T11:53:47.953Z,24.24
2022-09-05T11:56:45.882Z,25.47
2022-09-05T11:59:39.876Z,28.73
2022-09-05T12:02:49.543Z,29.61
2022-09-05T12:05:50.216Z,28.65
2022-09-05T12:08:46.555Z,28.52
2022-09-05T12:11:53.475Z,30.27
2022-09-05T12:14:36.223Z,32.92
2022-09-05T12:17:35.402Z,33.26
2022-09-05T12:20:27.996Z,32.75
2022-09-05T12:23:51.407Z,33.42
2022-09-05T12:27:40.396Z,33.69
2022-09-05T12:29:33.553Z,34.01
2022-09-05T12:33:32.310Z,33.64
2022-09-05T12:36:12.860Z,31.54
2022-09-05T12:40:55.409Z,30.30
2022-09-05T12:41:44.797Z,31.30
2022-09-05T12:44:39.772Z,31.15
2022-09-05T12:46:53.564Z,30.32
2022-09-05T12:49:20.017Z,34.77
2022-09-05T12:52:00.259Z,34.83
2022-09-05T12:54:34.666Z,36.06
2022-09-05T13:02:22.255Z,34.43
2022-09-05T13:03:06.813Z,35.04
2022-09-05T13:03:27.923Z,37.20
2022-09-05T13:06:10.455Z,38.14
2022-09-05T13:09:00.293Z,38.69
2022-09-05T13:14:57.657Z,37.18
2022-09-05T13:15:08.095Z,38.41
2022-09-05T13:17:15.712Z,38.74
2022-09-05T13:19:51.634Z,37.58
2022-09-05T13:22:21.425Z,38.02
2022-09-05T13:24:58.497Z,38.88
2022-09-05T13:27:31.890Z,37.46
2022-09-05T13:33:01.947Z,37.23
2022-09-05T13:38:13.076Z,37.73
2022-09-05T13:38:28.979Z,38.30
2022-09-05T13:39:10.873Z,36.07
2022-09-05T13:41:51.092Z,37.33
2022-09-05T13:44:26.337Z,35.97
2022-09-05T13:47:51.823Z,34.45
2022-09-05T13:50:43.958Z,35.16
2022-09-05T13:53:46.229Z,34.11
2022-09-05T13:56:23.787Z,33.67
2022-09-05T13:59:04.498Z,33.71
2022-09-05T14:02:24.485Z,35.09
2022-09-05T14:05:13.658Z,36.88
2022-09-05T14:07:56.134Z,35.90
2022-09-05T14:10:35.652Z,35.75
2022-09-05T14:13:15.945Z,34.99
2022-09-05T14:15:55.588Z,37.46
2022-09-05T14:19:12.516Z,37.65
2022-09-05T14:21:42.008Z,37.34
2022-09-05T14:24:17.428Z,37.25
2022-09-05T14:27:00.398Z,38.12
2022-09-05T14:29:38.927Z,36.01
2022-09-05T14:37:34.567Z,36.82
2022-09-05T14:37:40.491Z,36.19
2022-09-05T14:38:29.099Z,37.97
2022-09-05T14:41:28.276Z,38.37
2022-09-05T14:44:10.435Z,36.56
2022-09-05T14:47:02.673Z,36.77
2022-09-05T14:50:07.159Z,36.88
2022-09-05T14:52:43.328Z,36.50
2022-09-05T15:02:44.985Z,36.73
2022-09-05T15:02:50.864Z,36.22
2022-09-05T15:06:37.252Z,36.68
2022-09-05T15:12:16.353Z,36.45
2022-09-05T15:12:21.805Z,35.64
2022-09-05T15:15:19.062Z,36.07
2022-09-05T15:17:51.141Z,35.64
2022-09-05T15:20:33.554Z,35.44
2022-09-05T15:23:11.064Z,35.22
2022-09-05T15:25:48.345Z,35.28
2022-09-05T15:28:30.955Z,35.67
2022-09-05T15:31:00.799Z,35.81
2022-09-05T15:33:30.048Z,36.24
2022-09-05T15:35:58.271Z,35.36
2022-09-05T15:38:30.772Z,35.48
2022-09-05T15:41:20.618Z,35.45
2022-09-05T15:43:51.954Z,35.52
2022-09-05T15:46:24.785Z,35.82
2022-09-05T15:48:58.372Z,35.70
2022-09-05T15:51:50.626Z,36.39
2022-09-05T15:54:44.418Z,36.44
2022-09-05T15:57:21.302Z,36.92
2022-09-05T15:59:52.894Z,36.81
2022-09-05T16:02:26.442Z,36.78
2022-09-05T16:10:34.229Z,36.26
2022-09-05T16:10:39.493Z,36.25
2022-09-05T16:11:57.891Z,36.50
2022-09-05T16:14:39.397Z,36.54
2022-09-05T16:23:13.392Z,36.29
2022-09-05T16:23:32.266Z,36.48
2022-09-05T16:23:45.901Z,36.40
2022-09-05T16:26:25.684Z,36.72
2022-09-05T16:29:06.959Z,36.74
2022-09-05T16:31:51.401Z,36.41
2022-09-05T16:34:38.902Z,36.32
2022-09-05T16:37:19.740Z,36.33
2022-09-05T16:40:05.554Z,36.73
2022-09-05T16:42:47.840Z,36.97
2022-09-05T16:45:20.889Z,36.38
2022-09-05T16:48:10.252Z,36.55
2022-09-05T16:50:51.553Z,36.96
2022-09-05T16:53:30.373Z,36.48
2022-09-05T16:56:02.802Z,36.87
2022-09-05T16:58:50.449Z,36.74
2022-09-05T17:01:55.004Z,36.96
2022-09-05T17:05:04.985Z,36.79
2022-09-05T17:08:09.118Z,36.63
2022-09-05T17:11:03.494Z,36.82
2022-09-05T17:13:40.401Z,37.32
2022-09-05T17:16:11.983Z,37.45
2022-09-05T17:18:38.680Z,37.52
2022-09-05T17:21:18.804Z,37.16
2022-09-05T17:29:15.518Z,37.42
2022-09-05T17:29:27.753Z,37.46
2022-09-05T17:32:57.705Z,37.17
2022-09-05T17:35:53.777Z,37.31
2022-09-05T17:38:51.719Z,37.57
2022-09-05T17:41:53.708Z,37.50
2022-09-05T17:44:26.304Z,37.43
2022-09-05T17:47:07.138Z,37.75
2022-09-05T17:49:47.639Z,37.67
2022-09-05T17:52:16.609Z,38.00
2022-09-05T17:54:50.245Z,37.89
2022-09-05T17:57:28.844Z,37.60
2022-09-05T18:00:11.945Z,37.66
2022-09-05T18:02:56.903Z,37.49
2022-09-05T18:06:03.678Z,37.87
2022-09-05T18:08:49.939Z,37.65
2022-09-05T18:11:25.477Z,37.46
2022-09-05T18:14:24.631Z,37.92
2022-09-05T18:17:36.275Z,37.82
2022-09-05T18:19:44.000Z,37.63
2022-09-05T18:22:30.732Z,37.78
2022-09-05T18:25:13.873Z,38.00
2022-09-05T18:28:05.350Z,38.17
2022-09-05T18:33:53.510Z,38.22
2022-09-05T18:35:57.746Z,38.03
2022-09-05T18:38:50.802Z,38.15
2022-09-05T18:41:18.395Z,38.23
2022-09-05T18:44:12.095Z,38.08
2022-09-05T18:46:43.222Z,38.27
2022-09-05T18:50:24.292Z,38.50
2022-09-05T18:52:30.163Z,38.39
2022-09-05T18:56:09.339Z,38.62
2022-09-05T18:58:04.374Z,38.62
2022-09-05T19:00:43.959Z,38.80
2022-09-05T19:03:28.832Z,39.02
2022-09-05T19:06:35.090Z,38.93
2022-09-05T19:09:02.339Z,39.07
2022-09-05T19:11:32.018Z,39.13
2022-09-05T19:14:25.972Z,39.19
2022-09-05T19:17:01.387Z,39.27
2022-09-05T19:19:31.310Z,38.86
2022-09-05T19:22:49.986Z,39.05
2022-09-05T19:24:48.818Z,38.88
2022-09-05T19:32:26.904Z,39.31
2022-09-05T19:36:55.343Z,39.20
2022-09-05T19:36:57.533Z,38.87
2022-09-05T19:37:06.618Z,39.23
2022-09-05T19:39:15.338Z,39.58
2022-09-05T19:47:25.845Z,39.48
2022-09-05T19:47:40.611Z,39.60
2022-09-05T19:47:48.039Z,39.74
2022-09-05T19:49:58.003Z,39.68
2022-09-05T19:52:24.697Z,39.60
2022-09-05T19:54:54.785Z,39.62
2022-09-05T19:57:21.507Z,39.45
2022-09-05T19:59:54.129Z,39.52
2022-09-05T20:02:26.900Z,39.51
2022-09-05T20:04:57.263Z,39.44
2022-09-05T20:07:26.629Z,39.63
2022-09-05T20:09:55.707Z,39.24
2022-09-05T20:12:28.080Z,39.38
2022-09-05T20:14:54.815Z,39.64
2022-09-05T20:17:31.059Z,39.80
2022-09-05T20:20:25.435Z,39.77
2022-09-05T20:22:59.412Z,39.22
2022-09-05T20:25:36.807Z,39.28
2022-09-05T20:28:12.884Z,39.42
2022-09-05T20:30:50.820Z,39.30
2022-09-05T20:33:29.462Z,39.58
2022-09-05T20:42:12.077Z,39.61
2022-09-05T20:43:20.296Z,39.61
2022-09-05T20:43:21.590Z,39.68
2022-09-05T20:44:48.479Z,39.37
2022-09-05T20:51:29.507Z,39.51
2022-09-05T20:54:18.234Z,39.71
2022-09-05T20:54:27.128Z,39.58
2022-09-05T20:56:07.784Z,39.43
2022-09-05T20:58:37.126Z,39.42
2022-09-05T21:01:21.554Z,39.50
2022-09-05T21:04:03.196Z,39.84
2022-09-05T21:06:37.171Z,39.69
2022-09-05T21:09:24.314Z,39.86
2022-09-05T21:11:55.730Z,39.41
2022-09-05T21:14:24.406Z,39.67
2022-09-05T21:17:15.798Z,39.23
2022-09-05T21:19:53.410Z,39.68
2022-09-05T21:22:20.782Z,39.62
2022-09-05T21:24:48.109Z,39.29
2022-09-05T21:27:22.965Z,39.58
2022-09-05T21:29:59.326Z,39.36
2022-09-05T21:32:37.946Z,39.24
2022-09-05T21:35:31.118Z,39.08
2022-09-05T21:37:56.568Z,39.68
2022-09-05T21:40:23.408Z,38.96
2022-09-05T21:47:05.519Z,39.04
2022-09-05T21:47:40.638Z,39.03
2022-09-05T21:48:24.314Z,39.28
2022-09-05T21:50:50.969Z,39.33
2022-09-05T21:59:13.600Z,39.50
2022-09-05T21:59:17.483Z,39.22
2022-09-05T21:59:29.498Z,39.05
2022-09-05T22:01:53.155Z,39.53
2022-09-05T22:04:21.089Z,39.35
2022-09-05T22:06:48.773Z,39.12
2022-09-05T22:09:17.810Z,39.22
2022-09-05T22:11:49.993Z,38.90
2022-09-05T22:14:18.231Z,39.36
2022-09-05T22:16:47.283Z,38.82
2022-09-05T22:19:21.355Z,38.76
2022-09-05T22:21:50.098Z,38.73
2022-09-05T22:24:17.014Z,38.53
2022-09-05T22:27:11.124Z,38.50
2022-09-05T22:29:34.937Z,38.61
2022-09-05T22:32:01.646Z,38.60
2022-09-05T22:34:28.159Z,38.50
2022-09-05T22:36:56.056Z,37.96
2022-09-05T22:39:36.233Z,38.57
2022-09-05T22:42:10.346Z,37.95
2022-09-05T22:44:39.465Z,38.14
2022-09-05T22:47:07.818Z,37.78
2022-09-05T22:49:36.376Z,38.29
2022-09-05T22:52:07.731Z,37.59
2022-09-05T22:54:35.835Z,37.77
2022-09-05T22:57:03.664Z,37.56
2022-09-05T22:59:30.373Z,37.46
2022-09-05T23:01:57.055Z,37.78
2022-09-05T23:04:23.851Z,37.77
2022-09-05T23:06:50.387Z,37.53
2022-09-05T23:09:16.974Z,37.60
2022-09-05T23:11:43.501Z,37.64
2022-09-05T23:14:10.043Z,37.07
2022-09-05T23:16:36.532Z,37.21
2022-09-05T23:19:03.024Z,37.27
2022-09-05T23:21:29.558Z,37.45
2022-09-05T23:23:56.103Z,37.08
2022-09-05T23:26:22.569Z,37.45
2022-09-05T23:28:49.091Z,37.61
2022-09-05T23:31:15.661Z,37.23
2022-09-05T23:33:42.191Z,37.32
2022-09-05T23:36:13.517Z,37.18
2022-09-05T23:38:42.159Z,37.13
2022-09-05T23:41:12.135Z,37.54
2022-09-05T23:43:38.648Z,36.99
2022-09-05T23:46:05.464Z,37.26
2022-09-05T23:48:32.265Z,37.14
2022-09-05T23:51:13.586Z,37.40
2022-09-05T23:53:40.827Z,37.12
2022-09-05T23:56:09.367Z,36.96
2022-09-05T23:58:36.808Z,37.01
